Latest Weather Observations for Montague Island

IDN60801

Issued at 6:32 pm EDT Sunday 22 January 2017 (issued every 30 minutes, with the page automatically refreshed every 10 minutes)

About weather observations | Map of weather stations | Latest weather observations for NSW | Other Formats
Station Details ID: 069017 Name: MONTAGUE ISLAND LIGHTHOUSE Lat: -36.25 Lon: 150.23 Height: 52.0 m
Data from the previous 72 hours. | See also: Recent months at Montague Island
Date/Time
EDT
Temp
°C
App
Temp
°C
Dew
Point
°C
Rel
Hum
%
Delta-T
°C
Wind Press
QNH
hPa
Press
MSL
hPa
Rain since
9am
mm
Dir  Spd
km/h
Gust
km/h
Spd
kts
Gust
kts
22/06:30pm 22.1 20.5 17.5 75 2.8 NE 22 28 12 15 1014.2 1014.0 0.0
22/06:00pm 22.0 20.0 16.5 71 3.3 NE 22 26 12 14 1014.3 1014.1 0.0
22/05:30pm 22.2 19.9 15.8 67 3.9 NNE 22 26 12 14 1014.3 1014.1 0.0
22/05:00pm 22.1 19.4 15.5 66 3.9 NE 24 30 13 16 1014.5 1014.3 0.0
22/04:30pm 22.3 19.5 15.4 65 4.1 NE 24 30 13 16 1014.7 1014.5 0.0
22/04:00pm 22.3 19.7 15.9 67 3.9 NE 24 32 13 17 1014.8 1014.6 0.0
22/03:30pm 22.4 19.5 15.0 63 4.4 NE 24 32 13 17 1014.8 1014.6 0.0
22/03:00pm 22.2 19.2 15.8 67 3.9 NE 26 32 14 17 1014.9 1014.7 0.0
22/02:30pm 22.4 19.7 15.5 65 4.1 NE 24 32 13 17 1015.0 1014.8 0.0
22/02:00pm 22.3 19.1 15.2 64 4.2 NE 26 30 14 16 1015.2 1015.0 0.0
22/01:30pm 23.0 20.5 15.1 61 4.7 NE 22 26 12 14 1015.6 1015.4 0.0
22/01:00pm 22.6 20.7 15.7 65 4.1 NE 20 26 11 14 1015.8 1015.6 0.0
22/12:30pm 22.8 20.8 14.9 61 4.7 NE 19 22 10 12 1016.1 1015.9 0.0
22/12:00pm 22.7 20.9 14.5 60 4.8 NE 17 22 9 12 1016.4 1016.2 0.0
22/11:30am 23.1 21.6 14.1 57 5.3 NE 15 19 8 10 1016.6 1016.4 0.0
22/11:00am 22.8 21.9 13.6 56 5.3 NE 11 17 6 9 1016.8 1016.6 0.0
22/10:30am 22.7 21.6 13.2 55 5.5 NE 11 15 6 8 1017.0 1016.8 0.0
22/10:00am 22.0 21.5 12.0 53 5.6 NNE 6 13 3 7 1017.2 1017.0 0.0
22/09:30am 21.6 22.3 13.5 60 4.7 NE 2 6 1 3 1017.3 1017.1 0.0
22/09:00am 21.0 21.3 13.4 62 4.4 W 4 9 2 5 1017.6 1017.4 0.0
22/08:30am 21.2 22.2 14.4 65 4.0 W 2 7 1 4 1017.7 1017.5 0.0
22/08:00am 20.7 21.5 14.8 69 3.5 WSW 4 9 2 5 1017.5 1017.3 0.0
22/07:30am 20.0 20.4 15.4 75 2.7 WSW 7 11 4 6 1017.3 1017.1 0.0
22/07:00am 19.0 18.8 14.7 76 2.5 WSW 9 13 5 7 1017.1 1016.9 0.0
22/06:30am 18.8 18.5 14.5 76 2.5 WSW 9 13 5 7 1016.9 1016.7 0.0
22/06:00am 18.7 18.4 14.4 76 2.5 WSW 9 13 5 7 1016.7 1016.5 0.0
22/05:30am 18.8 18.1 14.3 75 2.6 W 11 13 6 7 1016.4 1016.2 0.0
22/05:00am 19.2 19.0 14.7 75 2.6 WSW 9 13 5 7 1016.2 1016.0 0.0
22/04:30am 19.1 19.4 14.4 74 2.7 SSW 6 11 3 6 1016.0 1015.8 0.0
22/04:00am 19.1 19.2 14.4 74 2.7 SSW 7 13 4 7 1015.9 1015.7 0.0
22/03:30am 19.0 19.0 14.3 74 2.7 SSW 7 11 4 6 1016.2 1016.0 0.0
22/03:00am 19.0 18.7 14.3 74 2.7 SSW 9 13 5 7 1016.4 1016.2 0.0
22/02:30am 19.0 18.7 14.3 74 2.7 SSW 9 13 5 7 1016.6 1016.4 0.0
22/02:00am 19.0 18.7 14.3 74 2.7 SSW 9 13 5 7 1016.7 1016.5 0.0
22/01:30am 19.0 18.7 14.3 74 2.7 SSW 9 13 5 7 1016.8 1016.6 0.0
22/01:00am 18.8 18.0 14.1 74 2.7 S 11 15 6 8 1016.8 1016.6 0.0
22/12:30am 19.0 18.2 14.1 73 2.8 S 11 15 6 8 1017.0 1016.8 0.0
22/12:00am 19.0 17.7 13.8 72 3.0 S 13 17 7 9 1017.0 1016.8 0.0
 
Date/Time
EDT
Temp
°C
App
Temp
°C
Dew
Point
°C
Rel
Hum
%
Delta-T
°C
Wind Press
QNH
hPa
Press
MSL
hPa
Rain since
9am
mm
Dir  Spd
km/h
Gust
km/h
Spd
kts
Gust
kts
21/11:30pm 19.2 17.1 13.6 70 3.2 S 17 20 9 11 1016.8 1016.6 0.0
21/11:00pm 19.2 16.5 12.9 67 3.6 S 19 20 10 11 1016.9 1016.7 0.0
21/10:30pm 19.4 17.1 12.9 66 3.7 SSE 17 22 9 12 1017.0 1016.8 0.0
21/10:00pm 19.6 17.0 13.3 67 3.6 SSE 19 22 10 12 1016.9 1016.7 0.0
21/09:30pm 19.6 17.1 13.5 68 3.5 SSE 19 24 10 13 1016.7 1016.5 0.0
21/09:00pm 19.8 17.0 14.4 71 3.1 SSE 22 24 12 13 1016.2 1016.0 0.0
21/08:30pm 19.8 16.7 14.4 71 3.1 SSE 24 28 13 15 1015.6 1015.4 0.0
21/08:00pm 20.0 17.1 14.1 69 3.4 SSE 22 26 12 14 1015.3 1015.1 0.0
21/07:30pm 20.0 17.1 13.9 68 3.5 SSE 22 28 12 15 1014.9 1014.7 0.0
21/07:00pm 20.1 17.4 14.7 71 3.2 SSE 22 28 12 15 1014.5 1014.3 0.0
21/06:30pm 20.5 18.0 15.1 71 3.2 SSE 22 28 12 15 1014.0 1013.8 0.0
21/06:00pm 20.7 17.8 14.1 66 3.8 SE 22 28 12 15 1013.7 1013.5 0.0
21/05:30pm 21.1 18.7 14.5 66 3.9 SSE 20 26 11 14 1013.5 1013.3 0.0
21/05:00pm 21.1 18.5 13.8 63 4.2 SE 20 24 11 13 1013.1 1012.9 0.0
21/04:30pm 20.9 17.9 13.8 64 4.1 SE 22 26 12 14 1012.9 1012.8 0.0
21/04:00pm 21.8 18.7 13.4 59 4.8 SE 22 26 12 14 1012.7 1012.6 0.0
21/03:30pm 21.7 18.5 13.1 58 4.9 SE 22 28 12 15 1012.4 1012.3 0.0
21/03:00pm 21.8 18.1 12.6 56 5.2 SSE 24 28 13 15 1012.1 1012.0 0.0
21/02:30pm 22.0 18.4 11.7 52 5.8 SE 22 26 12 14 1012.0 1011.9 0.0
21/02:00pm 22.2 19.1 12.2 53 5.7 SE 20 24 11 13 1012.1 1012.0 0.0
21/01:30pm 22.7 19.7 12.0 50 6.1 SSE 19 24 10 13 1012.0 1011.9 0.0
21/01:00pm 21.7 18.1 12.0 54 5.5 SE 22 26 12 14 1012.0 1011.9 0.0
21/12:30pm 21.4 17.4 11.7 54 5.4 SSE 24 28 13 15 1011.6 1011.5 0.0
21/12:00pm 21.1 17.1 10.6 51 5.7 SSE 22 26 12 14 1011.6 1011.5 0.0
21/11:30am 21.5 18.1 10.6 50 6.0 SSE 19 24 10 13 1011.7 1011.6 0.0
21/11:00am 21.5 17.8 10.3 49 6.1 SSE 20 24 11 13 1011.5 1011.4 0.0
21/10:30am 21.5 18.2 9.7 47 6.4 S 17 22 9 12 1011.3 1011.2 0.0
21/10:00am 21.5 18.2 9.7 47 6.4 S 17 22 9 12 1011.2 1011.1 0.0
21/09:30am 20.8 17.0 9.1 47 6.2 SSW 19 24 10 13 1011.0 1010.9 0.0
21/09:00am 19.8 15.4 9.1 50 5.7 SSW 22 32 12 17 1010.7 1010.6 1.2
21/08:30am 19.9 15.2 9.2 50 5.7 SW 24 32 13 17 1010.4 1010.3 1.2
21/08:00am 19.6 15.0 9.8 53 5.2 SW 24 30 13 16 1010.2 1010.1 1.2
21/07:30am 19.3 14.0 8.6 50 5.6 SW 26 32 14 17 1009.5 1009.4 1.2
21/07:00am 19.0 14.7 10.6 58 4.6 WSW 24 28 13 15 1009.0 1008.9 1.2
21/06:30am 18.6 12.9 9.9 57 4.6 SW 30 35 16 19 1008.3 1008.1 1.2
21/06:00am 18.3 13.8 10.2 59 4.3 WSW 24 32 13 17 1007.8 1007.6 1.2
21/05:30am 18.5 13.2 9.8 57 4.6 WSW 28 37 15 20 1007.2 1007.0 1.2
21/05:00am 18.7 13.1 10.0 57 4.7 WSW 30 39 16 21 1006.5 1006.3 1.2
21/04:30am 18.6 14.0 9.7 56 4.7 WSW 24 32 13 17 1006.0 1005.8 1.2
21/04:00am 18.7 14.2 10.0 57 4.7 SW 24 30 13 16 1005.4 1005.2 1.2
21/03:30am 18.8 13.9 9.8 56 4.8 WSW 26 32 14 17 1004.8 1004.6 1.2
21/03:00am 18.9 14.8 10.2 57 4.7 WSW 22 30 12 16 1004.7 1004.5 1.2
21/02:30am 19.0 15.3 10.3 57 4.7 WSW 20 26 11 14 1004.4 1004.2 1.2
21/02:00am 19.2 14.8 10.5 57 4.7 SW 24 32 13 17 1004.2 1004.0 1.2
21/01:30am 19.5 15.3 11.0 58 4.6 SW 24 32 13 17 1004.0 1003.8 1.2
21/01:00am 19.7 15.5 11.2 58 4.7 SSW 24 30 13 16 1003.9 1003.7 1.2
21/12:30am 20.0 15.1 11.2 57 4.8 SW 28 32 15 17 1003.2 1003.0 1.2
21/12:00am 20.2 15.0 11.7 58 4.7 SSW 30 41 16 22 1002.9 1002.7 1.2
 
Date/Time
EDT
Temp
°C
App
Temp
°C
Dew
Point
°C
Rel
Hum
%
Delta-T
°C
Wind Press
QNH
hPa
Press
MSL
hPa
Rain since
9am
mm
Dir  Spd
km/h
Gust
km/h
Spd
kts
Gust
kts
20/11:30pm 20.6 15.3 12.6 60 4.5 SSW 32 41 17 22 1002.7 1002.5 1.2
20/11:00pm 21.1 16.0 12.0 56 5.1 SSW 30 41 16 22 1002.2 1002.0 1.2
20/10:30pm 21.4 15.6 11.4 53 5.6 SW 33 39 18 21 1001.7 1001.5 1.2
20/10:00pm 21.6 14.4 10.7 50 6.0 SW 39 50 21 27 1000.8 1000.6 1.2
20/09:30pm 21.8 13.6 10.3 48 6.3 SW 44 54 24 29 999.8 999.6 1.2
20/09:20pm 21.9 12.3 10.7 49 6.2 SW 52 70 28 38 999.4 999.2 1.2
20/09:00pm 22.1 11.8 10.9 49 6.2 SW 56 72 30 39 997.6 997.4 1.2
20/08:30pm 22.6 13.7 12.0 51 6.0 SSW 50 69 27 37 996.9 996.7 1.2
20/08:24pm 22.6 14.1 12.0 51 6.0 SSW 48 69 26 37 996.3 996.1 1.2
20/08:00pm 23.5 16.5 13.7 54 5.8 SSW 43 57 23 31 995.5 995.3 1.2
20/07:30pm 23.1 17.8 16.4 66 4.1 S 39 48 21 26 994.9 994.7 1.2
20/07:00pm 22.6 18.5 17.3 72 3.3 S 35 43 19 23 994.0 993.8 1.2
20/06:30pm 22.4 19.4 17.8 75 2.9 S 30 39 16 21 993.1 993.0 1.2
20/06:00pm 22.8 19.6 18.1 75 3.0 S 32 41 17 22 992.7 992.5 1.2
20/05:30pm 23.0 20.5 19.8 82 2.1 SSE 32 39 17 21 992.4 992.2 1.2
20/05:00pm 22.9 20.5 19.9 83 1.9 SSE 32 39 17 21 991.9 991.7 1.2
20/04:30pm 22.1 19.5 20.0 88 1.4 S 33 43 18 23 991.8 991.6 1.2
20/04:00pm 22.8 20.3 20.9 89 1.3 S 35 43 19 23 990.8 990.6 0.8
20/03:30pm 25.9 24.0 20.2 71 3.7 SSW 30 39 16 21 989.6 989.4 0.2
20/03:15pm 27.5 27.6 20.3 65 4.7 SSW 20 39 11 21 989.5 989.3 0.2
20/03:00pm 28.5 32.1 23.0 72 3.8 N 9 15 5 8 988.8 988.6 0.2
20/02:30pm 25.6 26.2 22.1 81 2.3 NNE 22 28 12 15 988.7 988.5 0.2
20/02:00pm 24.7 23.7 22.0 85 1.8 NNE 30 37 16 20 988.8 988.6 0.2
20/01:30pm 24.5 22.7 21.2 82 2.2 NNE 32 41 17 22 988.8 988.6 0.2
20/01:00pm 24.9 23.5 21.2 80 2.5 NNE 30 39 16 21 989.4 989.2 0.2
20/12:30pm 23.7 21.1 20.6 83 2.0 NNE 35 43 19 23 989.9 989.7 0.2
20/12:00pm 22.5 18.0 19.9 85 1.7 NNE 43 50 23 27 989.7 989.5 0.2
20/11:30am 22.1 17.2 19.1 83 1.9 NNE 43 48 23 26 990.6 990.4 0.2
20/11:00am 21.7 17.8 18.7 83 1.9 NNE 37 44 20 24 992.4 992.2 0.2
20/10:30am 21.6 18.5 18.8 84 1.8 N 33 41 18 22 993.7 993.5 0.2
20/10:00am 21.3 18.6 18.5 84 1.8 N 30 39 16 21 994.8 994.6 0.2
20/09:30am 20.5 18.5 18.4 88 1.3 N 26 35 14 19 996.2 996.0 0.2
20/09:00am 21.1 18.7 18.3 84 1.8 N 28 37 15 20 996.8 996.6 0.0
20/08:30am 21.4 18.0 17.8 80 2.2 N 32 43 17 23 997.1 996.9 0.0
20/08:00am 21.3 16.6 17.7 80 2.2 N 39 48 21 26 997.4 997.2 0.0
20/07:30am 20.6 17.4 18.2 86 1.5 N 32 41 17 22 998.2 998.0 0.0
20/07:00am 21.3 17.8 17.5 79 2.4 N 32 43 17 23 999.1 998.9 0.0
20/06:30am 21.3 18.3 17.7 80 2.2 N 30 43 16 23 999.2 999.0 0.0
20/06:00am 21.3 17.8 17.5 79 2.4 N 32 44 17 24 999.4 999.2 0.0
20/05:30am 21.4 18.4 17.8 80 2.2 N 30 41 16 22 1000.3 1000.1 0.0
20/05:00am 21.3 18.1 17.3 78 2.5 N 30 39 16 21 1001.2 1001.0 0.0
20/04:30am 21.0 17.6 16.8 77 2.6 N 30 39 16 21 1001.7 1001.5 0.0
20/04:00am 21.0 17.0 16.8 77 2.6 N 33 44 18 24 1002.6 1002.4 0.0
20/03:30am 21.1 16.4 16.9 77 2.6 N 37 46 20 25 1002.9 1002.7 0.0
20/03:00am 21.4 17.8 17.6 79 2.4 N 33 44 18 24 1003.1 1002.9 0.0
20/02:30am 21.4 17.4 17.6 79 2.3 N 35 48 19 26 1004.3 1004.1 0.0
20/02:00am 21.3 17.8 17.5 79 2.4 N 32 44 17 24 1005.0 1004.8 0.0
20/01:30am 21.2 17.3 17.0 77 2.6 N 33 44 18 24 1005.5 1005.3 0.0
20/01:00am 21.1 17.4 16.9 77 2.6 N 32 41 17 22 1006.6 1006.4 0.0
20/12:30am 21.0 18.0 16.8 77 2.6 N 28 39 15 21 1007.1 1006.9 0.0
20/12:00am 21.0 18.4 16.8 77 2.6 N 26 33 14 18 1007.8 1007.6 0.0
 
Date/Time
EDT
Temp
°C
App
Temp
°C
Dew
Point
°C
Rel
Hum
%
Delta-T
°C
Wind Press
QNH
hPa
Press
MSL
hPa
Rain since
9am
mm
Dir  Spd
km/h
Gust
km/h
Spd
kts
Gust
kts
19/11:30pm 21.1 18.4 16.7 76 2.7 N 26 33 14 18 1008.4 1008.2 0.0
19/11:00pm 21.1 18.4 16.5 75 2.8 N 26 33 14 18 1008.8 1008.6 0.0
19/10:30pm 21.2 19.3 16.6 75 2.8 N 22 32 12 17 1009.0 1008.9 0.0
19/10:00pm 21.5 19.2 16.7 74 2.9 N 24 32 13 17 1009.4 1009.3 0.0
19/09:30pm 21.1 18.4 16.7 76 2.7 N 26 37 14 20 1009.6 1009.5 0.0
19/09:00pm 21.3 18.9 16.3 73 3.0 N 24 33 13 18 1009.7 1009.6 0.0
19/08:30pm 20.7 17.8 16.1 75 2.8 NNE 26 32 14 17 1010.0 1009.9 0.0
19/08:00pm 21.0 18.5 16.2 74 2.9 NNE 24 32 13 17 1010.1 1010.0 0.0
19/07:30pm 21.2 19.2 15.5 70 3.4 NNE 20 24 11 13 1010.3 1010.2 0.0
19/07:00pm 20.7 18.0 15.5 72 3.1 NNE 24 30 13 16 1010.5 1010.4 0.0

Other Formats:

Comma delimited format used in spreadsheet applications
http://www.bom.gov.au/fwo/IDN60801/IDN60801.94939.axf

JavaScript Object Notation format (JSON) in row-major order
http://www.bom.gov.au/fwo/IDN60801/IDN60801.94939.json